Terminal Aerodrome Forecast
Issued by NWS

Home | Current Version | Previous Version | Text Only | Print | Product List | Glossary On
Versions: 1 2 3 4 5 6 7 8 9 10 11 12 13
000
FTUS43 KMQT 301100
TAFIWD
TAF
KIWD 301130Z 3012/3112 VRB03KT 1/4SM FG VV002
     FM301300 25004KT 1SM BR VV001
     FM301400 26005KT 6SM BR FEW005 SCT020
     FM301500 29008KT P6SM FEW025
     FM302200 29007KT P6SM VCSH BKN060
     FM310500 25003KT P6SM SCT070
      AMD NOT SKED=

USA.gov is the U.S. government's official web portal to all federal, state and local government web resources and services.